Time;durP1;ratioP1;P1;durP2;ratioP2;P2;SDS_P1;SDS_P2;PMS_P1;PMS_P2;Temp;Humidity;BMP_temperature;BMP_pressure;BME280_temperature;BME280_humidity;BME280_pressure;Samples;Min_cycle;Max_cycle;Signal;HPM_P1;HPM_P2
2023/09/01 00:01:36;;;;;;;2.80;2.30;;;15.80;99.90;;;;;;5014452;28;20178;-73
2023/09/01 00:04:02;;;;;;;3.53;2.63;;;15.80;99.90;;;;;;5013221;28;20195;-72
2023/09/01 00:06:27;;;;;;;3.40;2.90;;;15.80;99.90;;;;;;5012882;28;20195;-73
2023/09/01 00:08:53;;;;;;;3.30;3.00;;;15.80;99.90;;;;;;5013669;28;20254;-72
2023/09/01 00:11:20;;;;;;;3.97;3.60;;;15.90;99.90;;;;;;5014250;28;20229;-73
2023/09/01 00:13:45;;;;;;;4.97;2.90;;;15.90;99.90;;;;;;5012922;28;20548;-73
2023/09/01 00:16:11;;;;;;;5.10;3.30;;;15.90;99.90;;;;;;5013136;28;20560;-72
2023/09/01 00:18:37;;;;;;;3.97;3.40;;;15.90;99.90;;;;;;5013307;28;20715;-73
2023/09/01 00:21:06;;;;;;;5.00;3.27;;;15.90;99.90;;;;;;5014233;28;20523;-72
2023/09/01 00:23:32;;;;;;;3.70;2.67;;;15.90;99.90;;;;;;5014281;28;20238;-72
2023/09/01 00:25:59;;;;;;;3.10;2.80;;;15.90;99.90;;;;;;5014080;28;20449;-73
2023/09/01 00:28:25;;;;;;;2.97;2.77;;;15.80;99.90;;;;;;5012097;28;20834;-73
2023/09/01 00:31:00;;;;;;;6.03;2.83;;;15.80;99.90;;;;;;5013884;28;20422;-73
2023/09/01 00:33:30;;;;;;;3.07;2.77;;;15.80;99.90;;;;;;5013766;28;20826;-73
2023/09/01 00:35:57;;;;;;;2.93;2.67;;;15.90;99.90;;;;;;5013918;28;20825;-73
2023/09/01 00:38:26;;;;;;;3.43;2.67;;;15.90;99.90;;;;;;5013137;28;20942;-73
2023/09/01 00:40:52;;;;;;;3.30;2.70;;;15.90;99.90;;;;;;5011870;28;20434;-73
2023/09/01 00:43:18;;;;;;;7.50;3.20;;;15.90;99.90;;;;;;5012238;28;20513;-73
2023/09/01 00:45:44;;;;;;;2.93;2.73;;;15.90;99.90;;;;;;5013535;28;20525;-73
2023/09/01 00:48:11;;;;;;;3.30;3.00;;;15.80;99.90;;;;;;5013512;28;20179;-73
2023/09/01 00:50:37;;;;;;;3.50;2.87;;;15.80;99.90;;;;;;5013300;28;20261;-73
2023/09/01 00:53:05;;;;;;;3.53;3.23;;;15.80;99.90;;;;;;5009848;28;20519;-74
2023/09/01 00:55:33;;;;;;;3.40;3.10;;;15.80;99.90;;;;;;5013221;28;20947;-73
2023/09/01 00:58:00;;;;;;;4.93;3.57;;;15.80;99.90;;;;;;5013446;28;20449;-72
2023/09/01 01:00:25;;;;;;;4.93;2.87;;;15.80;99.90;;;;;;5012719;28;20430;-72
2023/09/01 01:02:51;;;;;;;3.97;2.77;;;15.80;99.90;;;;;;5013064;28;20418;-73
2023/09/01 01:05:23;;;;;;;3.30;2.80;;;15.80;99.90;;;;;;5012307;28;20178;-72
2023/09/01 01:08:05;;;;;;;4.93;3.00;;;15.80;99.90;;;;;;5013122;28;20673;-73
2023/09/01 01:10:52;;;;;;;4.87;3.57;;;15.90;99.90;;;;;;5012620;28;20950;-72
2023/09/01 01:13:21;;;;;;;4.30;2.90;;;16.00;99.90;;;;;;5013119;28;20518;-73
2023/09/01 01:15:50;;;;;;;3.40;3.20;;;15.90;99.90;;;;;;5012095;28;20529;-72
2023/09/01 01:18:17;;;;;;;3.27;3.03;;;15.90;99.90;;;;;;5011236;28;20417;-72
2023/09/01 01:20:52;;;;;;;3.90;3.30;;;15.90;99.90;;;;;;5012901;28;20471;-72
2023/09/01 01:23:19;;;;;;;5.53;4.37;;;15.90;99.90;;;;;;4993439;28;20497;-72
2023/09/01 01:25:50;;;;;;;3.20;2.97;;;15.90;99.90;;;;;;4993250;28;20449;-74
2023/09/01 01:28:16;;;;;;;3.73;3.43;;;15.70;99.90;;;;;;4998674;28;20442;-72
2023/09/01 01:30:43;;;;;;;4.90;3.60;;;15.60;99.90;;;;;;5011955;28;20492;-72
2023/09/01 01:33:21;;;;;;;3.90;2.87;;;15.50;99.90;;;;;;5011324;28;20548;-72
2023/09/01 01:36:36;;;;;;;3.03;2.83;;;15.50;99.90;;;;;;5012653;28;20476;-72
2023/09/01 01:39:05;;;;;;;3.37;3.07;;;15.50;99.90;;;;;;5011755;28;20487;-72
2023/09/01 01:41:39;;;;;;;3.27;3.00;;;15.50;99.90;;;;;;5011559;28;20524;-72
2023/09/01 01:44:06;;;;;;;4.40;3.80;;;15.50;99.90;;;;;;5012538;28;20417;-72
2023/09/01 01:46:32;;;;;;;5.83;2.70;;;15.60;99.90;;;;;;5012495;28;20797;-72
2023/09/01 01:48:58;;;;;;;4.20;3.83;;;15.60;99.90;;;;;;5011668;28;20425;-74
2023/09/01 01:51:23;;;;;;;3.60;3.30;;;15.80;99.90;;;;;;5012648;28;20420;-72
2023/09/01 01:53:49;;;;;;;5.23;2.70;;;15.80;99.90;;;;;;5009237;28;20289;-72
2023/09/01 01:56:15;;;;;;;4.33;3.67;;;15.90;99.90;;;;;;5012267;28;20199;-72
2023/09/01 01:58:41;;;;;;;3.50;3.10;;;16.00;99.90;;;;;;5011639;28;20664;-73
2023/09/01 02:01:07;;;;;;;2.83;2.63;;;16.10;99.90;;;;;;5012350;28;20167;-72
2023/09/01 02:03:33;;;;;;;7.03;2.70;;;16.00;99.90;;;;;;5012309;28;20185;-72
2023/09/01 02:05:58;;;;;;;3.10;2.80;;;16.00;99.90;;;;;;5011336;28;20206;-72
2023/09/01 02:08:24;;;;;;;4.00;2.50;;;16.00;99.90;;;;;;5011559;28;20995;-73
2023/09/01 02:10:49;;;;;;;4.67;2.67;;;16.00;99.90;;;;;;5012359;28;20186;-72
2023/09/01 02:13:15;;;;;;;3.20;2.73;;;16.00;99.90;;;;;;5011780;28;20614;-72
2023/09/01 02:15:49;;;;;;;4.57;3.10;;;16.00;99.90;;;;;;5011135;28;20174;-72
2023/09/01 02:18:14;;;;;;;3.33;2.77;;;16.10;99.90;;;;;;5011033;28;20173;-72
2023/09/01 02:20:40;;;;;;;6.40;3.53;;;16.20;99.90;;;;;;5012211;28;20448;-72
2023/09/01 02:23:05;;;;;;;3.77;2.90;;;16.10;99.90;;;;;;5012104;28;20596;-72
2023/09/01 02:25:36;;;;;;;2.80;2.60;;;16.10;99.90;;;;;;5011965;28;20179;-73
2023/09/01 02:28:04;;;;;;;6.87;3.00;;;16.10;99.90;;;;;;5011117;28;20179;-72
2023/09/01 02:30:30;;;;;;;3.30;2.40;;;16.10;99.90;;;;;;5011381;28;20456;-72
2023/09/01 02:32:56;;;;;;;3.13;2.83;;;16.10;99.90;;;;;;5011921;28;20520;-72
2023/09/01 02:35:22;;;;;;;5.53;2.83;;;16.10;99.90;;;;;;5012211;28;21136;-72
2023/09/01 02:37:49;;;;;;;4.03;2.37;;;16.00;99.90;;;;;;5011953;28;20309;-72
2023/09/01 02:40:15;;;;;;;4.40;2.70;;;16.00;99.90;;;;;;5010382;28;20903;-72
2023/09/01 02:42:41;;;;;;;4.30;2.87;;;16.00;99.90;;;;;;5011802;28;20429;-72
2023/09/01 02:45:13;;;;;;;3.80;2.87;;;16.10;99.90;;;;;;5011894;28;20433;-72
2023/09/01 02:47:40;;;;;;;4.73;3.70;;;16.10;99.90;;;;;;5011797;28;20543;-72
2023/09/01 02:50:06;;;;;;;3.90;2.57;;;16.00;99.90;;;;;;5011242;28;20445;-72
2023/09/01 02:52:32;;;;;;;5.10;3.17;;;16.10;99.90;;;;;;5010908;28;20468;-72
2023/09/01 02:54:58;;;;;;;3.60;2.50;;;16.10;99.90;;;;;;5011573;28;20434;-72
2023/09/01 02:57:24;;;;;;;4.80;2.73;;;16.10;99.90;;;;;;5011671;28;20202;-72
2023/09/01 02:59:52;;;;;;;3.30;2.67;;;16.10;99.90;;;;;;5011522;28;20282;-72
2023/09/01 03:02:17;;;;;;;3.20;2.90;;;16.10;99.90;;;;;;5010775;28;20190;-72
2023/09/01 03:04:43;;;;;;;5.93;2.87;;;16.10;99.90;;;;;;5011938;28;20426;-73
2023/09/01 03:07:08;;;;;;;2.70;2.50;;;16.30;99.90;;;;;;5012186;28;20191;-72
2023/09/01 03:09:34;;;;;;;4.23;2.73;;;16.30;99.90;;;;;;5011981;28;20175;-72
2023/09/01 03:11:59;;;;;;;2.80;2.43;;;16.10;99.90;;;;;;5010688;28;20539;-72
2023/09/01 03:14:25;;;;;;;2.93;2.43;;;16.10;99.90;;;;;;5011624;28;20202;-72
2023/09/01 03:16:50;;;;;;;2.83;2.60;;;16.10;99.90;;;;;;5010327;28;20281;-72
2023/09/01 03:19:16;;;;;;;2.63;2.30;;;16.10;99.90;;;;;;5011016;28;20163;-72
2023/09/01 03:21:42;;;;;;;5.57;2.47;;;16.10;99.90;;;;;;5011767;28;20175;-72
2023/09/01 03:24:07;;;;;;;3.03;2.73;;;16.10;99.90;;;;;;5010469;28;20187;-72
2023/09/01 03:26:34;;;;;;;3.10;2.80;;;16.10;99.90;;;;;;5014616;28;20219;-72
2023/09/01 03:29:01;;;;;;;4.00;2.80;;;16.20;99.90;;;;;;5014410;28;20516;-72
2023/09/01 03:31:27;;;;;;;4.57;2.87;;;16.20;99.90;;;;;;5014932;28;20177;-72
2023/09/01 03:33:52;;;;;;;3.73;3.00;;;16.20;99.90;;;;;;5014648;28;20556;-72
2023/09/01 03:36:18;;;;;;;4.30;3.90;;;16.20;99.90;;;;;;5013941;28;20194;-72
2023/09/01 03:38:43;;;;;;;2.63;2.43;;;16.30;99.90;;;;;;5013921;28;20644;-72
2023/09/01 03:41:09;;;;;;;3.30;3.00;;;16.20;99.90;;;;;;5014882;28;20186;-72
2023/09/01 03:43:34;;;;;;;3.53;3.00;;;16.30;99.90;;;;;;5014867;28;20209;-72
2023/09/01 03:46:01;;;;;;;3.47;2.50;;;16.20;99.90;;;;;;5014610;28;20202;-72
2023/09/01 03:48:27;;;;;;;2.57;2.37;;;16.30;99.90;;;;;;5012503;28;20500;-72
2023/09/01 03:51:25;;;;;;;4.00;2.70;;;16.20;99.90;;;;;;5014584;28;20422;-72
2023/09/01 03:53:50;;;;;;;3.57;2.77;;;16.30;99.90;;;;;;5013229;28;20222;-72
2023/09/01 03:56:20;;;;;;;3.33;2.60;;;16.10;99.90;;;;;;5011928;28;20829;-72
2023/09/01 03:58:45;;;;;;;5.27;3.00;;;16.10;99.90;;;;;;5013739;28;20254;-73
2023/09/01 04:01:12;;;;;;;3.43;3.10;;;16.10;99.90;;;;;;5014389;28;20494;-72
2023/09/01 04:03:38;;;;;;;4.67;2.67;;;16.20;99.90;;;;;;5014397;28;20163;-73
2023/09/01 04:06:05;;;;;;;2.80;2.30;;;16.10;99.90;;;;;;5013405;28;20796;-72
2023/09/01 04:08:34;;;;;;;4.43;3.60;;;16.10;99.90;;;;;;5013600;28;20500;-72
2023/09/01 04:11:03;;;;;;;4.03;2.30;;;16.00;99.90;;;;;;5014287;28;20844;-72
2023/09/01 04:13:32;;;;;;;3.27;2.87;;;16.00;99.90;;;;;;5014153;28;20462;-72
2023/09/01 04:15:58;;;;;;;2.87;2.67;;;16.00;99.90;;;;;;5013967;28;20450;-72
2023/09/01 04:18:24;;;;;;;2.77;2.57;;;16.00;99.90;;;;;;5008208;28;20524;-73
2023/09/01 04:20:51;;;;;;;2.43;2.23;;;16.00;99.90;;;;;;5013632;28;20672;-72
2023/09/01 04:23:16;;;;;;;2.90;2.53;;;16.00;99.90;;;;;;5014139;28;20426;-72
2023/09/01 04:25:46;;;;;;;6.03;3.57;;;16.00;99.90;;;;;;5013958;28;20760;-73
2023/09/01 04:28:13;;;;;;;3.97;2.57;;;16.00;99.90;;;;;;5012199;28;20233;-72
2023/09/01 04:30:39;;;;;;;4.23;2.37;;;16.00;99.90;;;;;;5011375;28;20955;-72
2023/09/01 04:33:05;;;;;;;3.43;2.40;;;16.00;99.90;;;;;;5013627;28;20464;-72
2023/09/01 04:35:32;;;;;;;4.10;3.40;;;16.00;99.90;;;;;;5013809;28;20168;-72
2023/09/01 04:37:57;;;;;;;3.23;2.90;;;16.00;99.90;;;;;;5013103;28;20781;-72
2023/09/01 04:40:23;;;;;;;3.83;2.50;;;16.00;99.90;;;;;;5010617;28;20420;-73
2023/09/01 04:42:48;;;;;;;3.87;2.77;;;16.00;99.90;;;;;;5013681;28;20185;-72
2023/09/01 04:45:14;;;;;;;3.27;2.63;;;16.10;99.90;;;;;;5013558;28;20190;-72
2023/09/01 04:47:39;;;;;;;3.90;2.60;;;16.10;99.90;;;;;;5013524;28;20552;-73
2023/09/01 04:50:05;;;;;;;3.33;3.03;;;16.10;99.90;;;;;;5013078;28;20173;-72
2023/09/01 04:52:31;;;;;;;2.60;2.40;;;16.10;99.90;;;;;;5011731;28;20338;-72
2023/09/01 04:54:56;;;;;;;3.40;2.63;;;16.10;99.90;;;;;;5013392;28;20414;-72
2023/09/01 04:57:22;;;;;;;3.27;2.97;;;16.40;99.90;;;;;;5013326;28;20195;-72
2023/09/01 04:59:48;;;;;;;3.00;2.47;;;16.10;99.90;;;;;;5012642;28;20179;-72
2023/09/01 05:02:14;;;;;;;2.90;2.70;;;16.20;99.90;;;;;;5011516;28;20258;-72
2023/09/01 05:04:39;;;;;;;2.50;2.30;;;16.20;99.90;;;;;;5013463;28;21126;-72
2023/09/01 05:07:05;;;;;;;5.00;2.30;;;16.40;99.90;;;;;;5013112;28;20434;-72
2023/09/01 05:09:30;;;;;;;3.63;2.13;;;16.20;99.90;;;;;;5010604;28;20175;-72
2023/09/01 05:11:56;;;;;;;3.40;2.10;;;16.20;99.90;;;;;;5013159;28;20254;-72
2023/09/01 05:14:21;;;;;;;2.53;2.03;;;16.30;99.90;;;;;;5013100;28;20186;-72
2023/09/01 05:16:47;;;;;;;2.60;2.40;;;16.30;99.90;;;;;;5013307;28;20218;-72
2023/09/01 05:19:13;;;;;;;2.67;2.47;;;16.30;99.90;;;;;;5010047;28;20183;-72
2023/09/01 05:21:39;;;;;;;3.43;2.50;;;16.30;99.90;;;;;;5012970;28;20179;-72
2023/09/01 05:24:05;;;;;;;2.60;2.33;;;16.40;99.90;;;;;;5011716;28;20824;-74
2023/09/01 05:26:31;;;;;;;2.50;2.30;;;16.40;99.90;;;;;;5012938;28;20268;-72
2023/09/01 05:28:56;;;;;;;2.20;2.10;;;16.40;99.90;;;;;;5011167;28;20946;-72
2023/09/01 05:31:22;;;;;;;2.60;2.40;;;16.50;99.90;;;;;;5012733;28;20616;-72
2023/09/01 05:33:47;;;;;;;2.87;2.57;;;16.50;99.90;;;;;;5012719;28;20255;-72
2023/09/01 05:36:13;;;;;;;3.27;2.43;;;16.50;99.90;;;;;;5012764;28;20230;-72
2023/09/01 05:38:38;;;;;;;2.53;2.30;;;16.60;99.90;;;;;;5012097;28;20203;-72
2023/09/01 05:41:05;;;;;;;6.03;2.70;;;16.50;99.90;;;;;;5011564;28;20691;-72
2023/09/01 05:43:31;;;;;;;3.33;3.03;;;16.30;99.90;;;;;;5012508;28;20213;-72
2023/09/01 05:45:57;;;;;;;3.27;2.97;;;16.20;99.90;;;;;;5012409;28;20438;-72
2023/09/01 05:48:23;;;;;;;4.00;2.70;;;16.20;99.90;;;;;;5011294;28;20915;-73
2023/09/01 05:50:48;;;;;;;3.90;3.60;;;15.90;99.90;;;;;;5012627;28;20418;-72
2023/09/01 05:53:14;;;;;;;9.20;3.27;;;16.20;99.90;;;;;;5011016;28;20211;-72
2023/09/01 05:55:39;;;;;;;2.90;2.40;;;15.80;99.90;;;;;;5012305;28;20194;-72
2023/09/01 05:58:05;;;;;;;4.60;2.73;;;15.80;99.90;;;;;;5012307;28;20687;-72
2023/09/01 06:00:30;;;;;;;3.40;2.70;;;15.80;99.90;;;;;;5011851;28;20655;-72
2023/09/01 06:02:56;;;;;;;3.00;2.60;;;15.80;99.90;;;;;;5012372;28;20559;-71
2023/09/01 06:05:22;;;;;;;4.70;2.70;;;15.90;99.90;;;;;;5010755;28;20600;-72
2023/09/01 06:07:48;;;;;;;7.50;2.57;;;16.00;99.90;;;;;;5009983;28;20245;-72
2023/09/01 06:10:15;;;;;;;3.20;2.80;;;15.90;99.90;;;;;;5011468;28;20421;-73
2023/09/01 06:12:41;;;;;;;5.80;2.80;;;15.90;99.90;;;;;;5010074;28;20234;-73
2023/09/01 06:15:07;;;;;;;3.10;2.87;;;15.80;99.90;;;;;;5012023;28;20472;-73
2023/09/01 06:17:33;;;;;;;3.20;2.90;;;15.80;99.90;;;;;;5012034;28;20465;-73
2023/09/01 06:19:58;;;;;;;4.17;3.77;;;15.80;99.90;;;;;;5011532;28;20430;-74
2023/09/01 06:22:24;;;;;;;2.97;2.47;;;15.70;99.90;;;;;;5004915;28;20194;-73
2023/09/01 06:24:49;;;;;;;3.07;2.77;;;15.70;99.90;;;;;;5011218;28;20183;-73
2023/09/01 06:27:15;;;;;;;2.87;2.63;;;15.70;99.90;;;;;;5011936;28;20308;-73
2023/09/01 06:29:40;;;;;;;5.00;2.30;;;15.70;99.90;;;;;;5011318;28;20216;-73
2023/09/01 06:32:08;;;;;;;3.47;2.43;;;15.70;99.90;;;;;;5010887;28;20268;-73
2023/09/01 06:34:34;;;;;;;4.77;3.07;;;15.70;99.90;;;;;;5008252;28;20535;-73
2023/09/01 06:36:59;;;;;;;3.40;2.67;;;15.80;99.90;;;;;;5009278;28;20458;-74
2023/09/01 06:39:25;;;;;;;3.07;2.27;;;15.80;99.90;;;;;;5009537;28;20187;-74
2023/09/01 06:41:50;;;;;;;3.10;2.13;;;15.80;99.90;;;;;;4995299;28;20190;-74
2023/09/01 06:44:16;;;;;;;6.43;3.53;;;15.90;99.90;;;;;;5004917;28;20190;-73
2023/09/01 06:46:41;;;;;;;6.93;3.03;;;15.90;99.90;;;;;;5009801;28;20684;-74
2023/09/01 06:49:07;;;;;;;1.80;1.70;;;16.00;99.90;;;;;;5011066;28;20199;-73
2023/09/01 06:51:32;;;;;;;2.90;2.60;;;16.00;99.90;;;;;;5009612;28;20183;-74
2023/09/01 06:53:58;;;;;;;2.40;2.20;;;16.10;99.90;;;;;;5010706;28;20261;-73
2023/09/01 06:56:24;;;;;;;3.10;2.90;;;16.10;99.90;;;;;;5011558;28;20668;-73
2023/09/01 06:58:49;;;;;;;2.33;2.13;;;16.10;99.90;;;;;;5009205;28;20214;-73
2023/09/01 07:01:15;;;;;;;3.17;2.87;;;16.20;99.90;;;;;;5013788;28;20198;-73
2023/09/01 07:03:42;;;;;;;3.93;2.30;;;16.30;99.90;;;;;;5001273;28;20175;-73
2023/09/01 07:06:07;;;;;;;2.33;2.13;;;16.30;99.90;;;;;;5004178;28;20458;-72
2023/09/01 07:08:33;;;;;;;2.50;2.23;;;16.30;99.90;;;;;;4995233;28;20430;-72
2023/09/01 07:11:09;;;;;;;2.63;2.40;;;16.30;99.90;;;;;;5008884;28;20194;-72
2023/09/01 07:13:34;;;;;;;5.37;3.37;;;16.30;99.90;;;;;;5005064;28;20209;-73
2023/09/01 07:16:00;;;;;;;4.13;2.67;;;16.40;99.90;;;;;;5000349;28;20446;-73
2023/09/01 07:18:26;;;;;;;3.03;2.10;;;16.40;99.90;;;;;;4993858;28;20187;-73
2023/09/01 07:20:51;;;;;;;3.23;2.47;;;16.40;99.90;;;;;;4995974;28;20230;-73
2023/09/01 07:23:18;;;;;;;3.37;2.40;;;16.30;99.90;;;;;;5007863;28;20306;-72
2023/09/01 07:25:44;;;;;;;7.77;2.63;;;16.30;99.90;;;;;;4999468;28;20182;-72
2023/09/01 07:28:13;;;;;;;2.67;2.47;;;16.40;99.90;;;;;;5001361;28;20431;-73
2023/09/01 07:30:40;;;;;;;5.43;4.77;;;16.50;99.90;;;;;;5010943;28;20438;-65
2023/09/01 07:33:05;;;;;;;5.37;3.80;;;16.60;99.90;;;;;;5000801;28;20504;-65
2023/09/01 07:35:31;;;;;;;3.80;3.50;;;16.70;99.90;;;;;;5014258;28;20839;-65
2023/09/01 07:37:57;;;;;;;2.50;2.30;;;16.90;99.90;;;;;;5014826;28;20171;-65
2023/09/01 07:40:23;;;;;;;2.83;2.63;;;17.10;99.90;;;;;;5013833;28;20190;-65
2023/09/01 07:42:49;;;;;;;4.77;2.67;;;17.10;99.90;;;;;;5014985;28;20938;-66
2023/09/01 07:45:15;;;;;;;2.80;2.60;;;17.10;99.90;;;;;;5013769;28;20441;-66
2023/09/01 07:47:40;;;;;;;3.53;2.40;;;17.20;99.90;;;;;;5014301;28;20199;-65
2023/09/01 07:50:06;;;;;;;2.50;2.30;;;17.30;99.90;;;;;;5013926;28;20186;-65
2023/09/01 07:52:32;;;;;;;2.50;2.23;;;17.40;99.90;;;;;;5014585;28;20206;-65
2023/09/01 07:54:57;;;;;;;2.53;2.27;;;17.50;99.90;;;;;;4994860;28;20733;-65
2023/09/01 07:57:23;;;;;;;4.17;2.67;;;17.60;99.90;;;;;;5013814;28;20583;-65
2023/09/01 07:59:48;;;;;;;2.60;2.40;;;17.80;99.90;;;;;;4997840;28;20176;-65
2023/09/01 08:02:14;;;;;;;2.67;2.47;;;17.90;99.90;;;;;;4994928;28;20167;-65
2023/09/01 08:04:39;;;;;;;2.33;1.90;;;18.10;99.90;;;;;;4994833;28;20195;-65
2023/09/01 08:07:05;;;;;;;3.63;2.67;;;18.20;99.90;;;;;;4999723;28;20226;-65
2023/09/01 08:09:30;;;;;;;2.30;2.20;;;18.30;99.90;;;;;;5008562;28;20173;-65
2023/09/01 08:11:56;;;;;;;2.10;2.00;;;18.40;99.90;;;;;;5013175;28;20644;-65
2023/09/01 08:14:22;;;;;;;2.80;2.03;;;18.50;99.90;;;;;;4996297;28;20254;-65
2023/09/01 08:16:48;;;;;;;2.70;2.47;;;18.70;99.90;;;;;;4994379;28;20214;-65
2023/09/01 08:19:13;;;;;;;2.40;2.13;;;18.90;99.90;;;;;;4996695;28;20270;-65
2023/09/01 08:21:39;;;;;;;2.60;2.20;;;19.30;99.90;;;;;;5010987;28;20820;-65
2023/09/01 08:24:05;;;;;;;1.80;1.70;;;19.60;99.90;;;;;;5011445;28;20179;-65
2023/09/01 08:26:33;;;;;;;2.57;2.10;;;19.60;99.90;;;;;;5014092;28;20199;-65
2023/09/01 08:28:59;;;;;;;3.17;1.93;;;19.60;99.90;;;;;;5012984;28;20615;-65
2023/09/01 08:31:25;;;;;;;3.20;2.90;;;19.70;99.90;;;;;;4998619;28;20500;-65
2023/09/01 08:33:51;;;;;;;1.73;1.63;;;20.10;99.90;;;;;;5004230;28;20306;-65
2023/09/01 08:36:17;;;;;;;1.50;1.40;;;20.60;99.90;;;;;;5000936;28;20200;-65
2023/09/01 08:38:43;;;;;;;1.70;1.60;;;20.70;99.90;;;;;;4993528;28;20449;-65
2023/09/01 08:41:08;;;;;;;1.63;1.30;;;20.60;99.90;;;;;;4993533;28;20680;-65
2023/09/01 08:43:36;;;;;;;2.90;1.03;;;20.40;99.90;;;;;;4995474;28;20190;-65
2023/09/01 08:46:03;;;;;;;1.47;1.37;;;20.60;99.90;;;;;;5012247;28;20209;-66
2023/09/01 08:48:33;;;;;;;1.80;1.10;;;20.60;99.90;;;;;;5012807;28;20437;-65
2023/09/01 08:50:59;;;;;;;1.87;1.20;;;20.50;99.90;;;;;;5013312;28;20422;-65
2023/09/01 08:53:25;;;;;;;3.87;3.40;;;20.60;99.90;;;;;;5013468;28;20456;-66
2023/09/01 08:55:52;;;;;;;1.80;1.33;;;20.70;99.90;;;;;;5012583;28;20261;-65
2023/09/01 08:58:18;;;;;;;2.40;1.40;;;20.90;99.90;;;;;;5012688;28;20423;-66
2023/09/01 09:00:45;;;;;;;1.77;1.37;;;20.90;99.90;;;;;;5013602;28;20788;-65
2023/09/01 09:03:14;;;;;;;1.60;1.50;;;21.10;99.90;;;;;;5013408;28;20171;-66
2023/09/01 09:05:40;;;;;;;1.87;1.20;;;21.10;99.90;;;;;;5013148;28;20430;-66
2023/09/01 09:08:08;;;;;;;1.97;1.50;;;21.60;99.90;;;;;;5012177;28;20501;-65
2023/09/01 09:10:36;;;;;;;2.40;1.40;;;22.60;99.90;;;;;;5012617;28;20254;-66
2023/09/01 09:13:18;;;;;;;1.60;1.50;;;23.20;99.90;;;;;;5013034;28;20460;-66
2023/09/01 09:15:44;;;;;;;1.87;1.60;;;23.10;99.90;;;;;;5013065;28;20414;-66
2023/09/01 09:18:09;;;;;;;1.70;1.60;;;23.10;99.90;;;;;;5012690;28;20559;-66
2023/09/01 09:20:37;;;;;;;2.50;1.50;;;23.10;99.90;;;;;;5011990;28;20214;-65
2023/09/01 09:23:03;;;;;;;2.37;2.00;;;23.00;99.90;;;;;;5011844;28;20700;-66
2023/09/01 09:25:34;;;;;;;2.10;1.90;;;22.80;99.90;;;;;;5012873;28;20428;-66
2023/09/01 09:28:09;;;;;;;1.77;1.47;;;22.80;99.90;;;;;;5012936;28;20744;-66
2023/09/01 09:30:35;;;;;;;2.17;1.77;;;22.90;99.90;;;;;;5012692;28;20417;-66
2023/09/01 09:33:05;;;;;;;1.90;1.80;;;22.90;99.90;;;;;;5011580;28;21001;-66
2023/09/01 09:35:33;;;;;;;6.03;1.67;;;22.90;99.90;;;;;;5012690;28;20264;-66
2023/09/01 09:37:59;;;;;;;4.30;1.47;;;23.00;99.90;;;;;;5012881;28;20433;-66
2023/09/01 09:40:26;;;;;;;1.97;1.50;;;22.90;99.90;;;;;;5012082;28;20426;-66
2023/09/01 09:42:51;;;;;;;2.03;1.83;;;22.80;99.90;;;;;;5012697;28;20437;-66
2023/09/01 09:45:24;;;;;;;3.10;2.20;;;22.80;99.90;;;;;;5010335;28;20441;-66
2023/09/01 09:47:50;;;;;;;2.30;1.50;;;22.50;99.90;;;;;;5012367;28;20202;-66
2023/09/01 09:50:17;;;;;;;1.87;1.77;;;22.20;99.90;;;;;;5011896;28;20422;-66
2023/09/01 09:52:59;;;;;;;1.40;1.30;;;21.90;99.90;;;;;;5011310;28;20476;-66
2023/09/01 09:55:26;;;;;;;1.80;1.70;;;21.80;99.90;;;;;;5012514;28;20428;-66
2023/09/01 09:57:57;;;;;;;1.93;1.73;;;21.60;99.90;;;;;;5011397;28;20854;-65
2023/09/01 10:00:24;;;;;;;2.40;2.20;;;21.00;99.90;;;;;;5004223;28;20414;-65
2023/09/01 10:02:58;;;;;;;2.13;2.00;;;20.50;99.90;;;;;;5012439;28;20807;-65
2023/09/01 10:05:24;;;;;;;2.10;1.80;;;20.10;99.90;;;;;;5012406;28;20508;-65
2023/09/01 10:07:51;;;;;;;2.80;2.60;;;19.90;99.90;;;;;;5011380;28;20537;-65
2023/09/01 10:10:17;;;;;;;2.67;2.43;;;19.80;99.90;;;;;;5011138;28;20198;-65
2023/09/01 10:12:42;;;;;;;2.40;2.13;;;19.80;99.90;;;;;;5012225;28;20453;-65
2023/09/01 10:15:11;;;;;;;4.50;4.10;;;19.90;99.90;;;;;;5012410;28;20436;-65
2023/09/01 10:17:38;;;;;;;3.23;3.03;;;20.00;99.90;;;;;;5012063;28;20257;-65
2023/09/01 10:20:07;;;;;;;2.20;2.10;;;20.20;99.90;;;;;;5009922;28;20433;-65
2023/09/01 10:22:38;;;;;;;2.77;1.83;;;20.40;99.90;;;;;;5012052;28;20444;-65
2023/09/01 10:25:17;;;;;;;3.40;1.83;;;20.50;99.90;;;;;;5012195;28;20528;-65
2023/09/01 10:28:00;;;;;;;4.10;2.30;;;20.50;99.90;;;;;;5012239;28;20441;-65
2023/09/01 10:30:27;;;;;;;2.10;2.00;;;20.50;99.90;;;;;;5010364;28;20512;-65
2023/09/01 10:33:07;;;;;;;2.00;1.90;;;20.70;99.90;;;;;;5010994;28;20464;-65
2023/09/01 10:35:53;;;;;;;1.60;1.50;;;20.90;99.90;;;;;;5011089;28;20947;-65
2023/09/01 10:38:35;;;;;;;3.63;3.33;;;21.00;99.90;;;;;;5007323;28;20422;-65
2023/09/01 10:41:01;;;;;;;2.77;1.80;;;21.40;99.90;;;;;;5016190;28;20977;-65
2023/09/01 10:43:36;;;;;;;2.23;1.97;;;21.60;99.90;;;;;;5014614;28;20545;-65
2023/09/01 10:46:14;;;;;;;2.20;1.90;;;21.70;99.90;;;;;;5015693;28;20475;-65
2023/09/01 10:48:50;;;;;;;2.13;1.93;;;22.20;99.90;;;;;;5015309;28;20957;-66
2023/09/01 10:51:21;;;;;;;3.23;2.37;;;22.40;99.90;;;;;;5016009;28;20426;-65
2023/09/01 10:53:50;;;;;;;3.10;1.97;;;22.10;99.90;;;;;;5015715;28;20449;-65
2023/09/01 10:56:16;;;;;;;2.53;2.10;;;21.90;99.90;;;;;;5010748;28;20464;-65
2023/09/01 10:58:46;;;;;;;2.10;1.90;;;22.00;99.90;;;;;;5013434;28;20429;-65
2023/09/01 11:01:29;;;;;;;3.27;1.97;;;22.10;99.90;;;;;;5015678;28;20258;-65
2023/09/01 11:03:55;;;;;;;2.13;1.93;;;22.50;99.90;;;;;;5015656;28;20420;-65
2023/09/01 11:06:22;;;;;;;4.97;2.60;;;23.00;99.90;;;;;;5015362;28;20463;-66
2023/09/01 11:08:58;;;;;;;7.00;2.13;;;23.20;99.90;;;;;;5010445;28;20448;-66
2023/09/01 11:11:23;;;;;;;2.10;2.00;;;23.00;99.90;;;;;;5007968;28;20479;-66
2023/09/01 11:14:00;;;;;;;3.27;1.83;;;22.80;99.90;;;;;;5015338;28;20461;-66
2023/09/01 11:16:25;;;;;;;4.23;2.20;;;22.90;99.90;;;;;;5015688;28;20230;-66
2023/09/01 11:19:01;;;;;;;1.90;1.80;;;22.90;99.90;;;;;;5010638;28;20478;-66
2023/09/01 11:21:27;;;;;;;2.47;2.30;;;22.80;99.90;;;;;;5007365;28;20186;-66
2023/09/01 11:24:03;;;;;;;1.93;1.80;;;23.30;99.90;;;;;;5015356;28;20422;-66
2023/09/01 11:26:29;;;;;;;3.57;2.27;;;23.60;99.90;;;;;;5015079;28;20777;-65
2023/09/01 11:28:55;;;;;;;2.37;2.10;;;24.20;99.90;;;;;;5013463;28;20465;-66
2023/09/01 11:31:21;;;;;;;1.70;1.60;;;24.70;99.90;;;;;;5015045;28;20475;-65
2023/09/01 11:33:52;;;;;;;3.00;2.27;;;25.20;99.90;;;;;;5014950;28;20464;-66
2023/09/01 11:36:18;;;;;;;2.37;2.17;;;25.40;99.90;;;;;;5014905;28;20433;-66
2023/09/01 11:38:44;;;;;;;1.50;1.40;;;25.70;99.90;;;;;;5012428;28;20442;-66
2023/09/01 11:41:13;;;;;;;1.80;1.67;;;25.50;99.90;;;;;;5013914;28;20434;-66
2023/09/01 11:43:40;;;;;;;2.30;1.50;;;26.80;99.90;;;;;;5014919;28;20182;-66
2023/09/01 11:46:07;;;;;;;1.80;1.53;;;28.10;99.90;;;;;;5014027;28;20438;-66
2023/09/01 11:48:32;;;;;;;1.60;1.07;;;28.70;99.90;;;;;;5012753;28;20421;-65
2023/09/01 11:50:58;;;;;;;2.93;1.70;;;27.90;99.90;;;;;;5014766;28;20939;-66
2023/09/01 11:53:29;;;;;;;1.57;1.47;;;27.40;99.90;;;;;;5014644;28;20198;-66
2023/09/01 11:55:59;;;;;;;1.30;1.20;;;26.70;99.90;;;;;;5014649;28;20438;-66
2023/09/01 11:58:44;;;;;;;3.20;1.90;;;26.20;99.90;;;;;;5013929;28;20422;-66
2023/09/01 12:01:14;;;;;;;1.67;1.50;;;25.70;99.90;;;;;;5013236;28;20514;-66
2023/09/01 12:03:47;;;;;;;1.40;1.30;;;26.70;99.90;;;;;;5014479;28;20479;-66
2023/09/01 12:06:25;;;;;;;4.47;2.20;;;29.00;99.90;;;;;;5014456;28;20452;-66
2023/09/01 12:08:53;;;;;;;1.60;1.50;;;31.20;97.70;;;;;;5012000;28;20449;-66
2023/09/01 12:11:19;;;;;;;2.73;2.23;;;32.00;92.50;;;;;;5006058;28;20940;-66
2023/09/01 12:13:45;;;;;;;1.77;1.67;;;32.20;89.20;;;;;;5014233;28;20462;-66
2023/09/01 12:16:21;;;;;;;1.67;1.57;;;30.70;91.80;;;;;;5014137;28;20457;-66
2023/09/01 12:18:48;;;;;;;1.30;1.20;;;29.70;93.50;;;;;;5012795;28;20552;-66
2023/09/01 12:21:14;;;;;;;1.40;1.30;;;29.10;93.90;;;;;;5014048;28;20437;-66
2023/09/01 12:23:43;;;;;;;1.30;1.20;;;29.00;95.50;;;;;;5014084;28;20825;-65
2023/09/01 12:26:10;;;;;;;1.83;1.53;;;28.80;95.70;;;;;;5014022;28;20681;-66
2023/09/01 12:28:37;;;;;;;2.90;2.13;;;28.60;96.40;;;;;;5013304;28;20923;-66
2023/09/01 12:31:05;;;;;;;1.53;1.43;;;28.20;97.10;;;;;;5012801;28;20461;-66
2023/09/01 12:33:30;;;;;;;1.67;1.57;;;27.00;98.00;;;;;;5012216;28;20461;-66
2023/09/01 12:35:56;;;;;;;1.57;1.47;;;25.80;99.90;;;;;;5013848;28;20842;-66
2023/09/01 12:38:22;;;;;;;1.30;1.20;;;25.10;99.90;;;;;;5013203;28;20540;-66
2023/09/01 12:40:48;;;;;;;1.80;1.50;;;24.60;99.90;;;;;;5013816;28;20695;-66
2023/09/01 12:43:13;;;;;;;1.33;1.23;;;24.30;99.90;;;;;;5012210;28;20518;-66
2023/09/01 12:45:40;;;;;;;1.70;1.50;;;24.20;99.90;;;;;;5013690;28;20436;-66
2023/09/01 12:48:06;;;;;;;3.23;1.67;;;24.10;99.90;;;;;;5013624;28;20175;-65
2023/09/01 12:50:32;;;;;;;1.60;1.50;;;24.30;99.90;;;;;;5013120;28;20923;-66